Time;durP1;ratioP1;P1;durP2;ratioP2;P2;SDS_P1;SDS_P2;PMS_P1;PMS_P2;Temp;Humidity;BMP_temperature;BMP_pressure;BME280_temperature;BME280_humidity;BME280_pressure;Samples;Min_cycle;Max_cycle;Signal;HPM_P1;HPM_P2
2023/02/09 00:00:16;;;;;;;27.08;12.75;;;;;;;-8.94;85.54;97545.09;2106849;28;20048;-78
2023/02/09 00:01:21;;;;;;;24.60;9.73;;;;;;;-8.93;85.56;97544.28;2096684;28;20044;-78
2023/02/09 00:02:22;;;;;;;23.90;11.02;;;;;;;-8.95;85.29;97543.38;2089825;28;20055;-78
2023/02/09 00:03:23;;;;;;;21.67;9.65;;;;;;;-8.95;85.81;97548.41;2097659;28;20036;-78
2023/02/09 00:04:24;;;;;;;22.27;10.23;;;;;;;-8.97;85.12;97549.97;2097539;28;20036;-78
2023/02/09 00:05:25;;;;;;;22.58;9.70;;;;;;;-9.10;85.09;97529.16;2096859;28;20040;-77
2023/02/09 00:06:28;;;;;;;22.63;10.38;;;;;;;-9.02;84.98;97543.81;2097792;28;20499;-78
2023/02/09 00:07:29;;;;;;;22.33;10.02;;;;;;;-9.03;85.12;97542.06;2080210;28;20050;-77
2023/02/09 00:08:31;;;;;;;21.55;9.93;;;;;;;-9.03;84.87;97552.13;2073049;28;20049;-77
2023/02/09 00:09:32;;;;;;;19.58;9.70;;;;;;;-9.03;84.67;97547.09;2097850;28;20029;-77
2023/02/09 00:10:33;;;;;;;24.50;9.30;;;;;;;-9.03;85.19;97544.59;2097535;28;20040;-78
2023/02/09 00:14:23;;;;;;;21.20;9.18;;;;;;;-9.16;85.82;97543.94;2093204;28;20048;-78
2023/02/09 00:15:25;;;;;;;23.38;10.13;;;;;;;-9.19;85.69;97543.78;2097628;28;20056;-78
2023/02/09 00:16:26;;;;;;;21.23;10.18;;;;;;;-9.20;85.67;97541.19;2097567;28;20044;-77
2023/02/09 00:17:27;;;;;;;22.85;9.88;;;;;;;-9.18;86.52;97549.69;2106539;28;20043;-77
2023/02/09 00:18:30;;;;;;;23.80;10.60;;;;;;;-9.21;87.52;97535.28;2106307;28;20403;-78
2023/02/09 00:19:31;;;;;;;21.02;9.63;;;;;;;-9.15;87.92;97542.28;2097343;28;20067;-77
2023/02/09 00:20:32;;;;;;;24.08;10.18;;;;;;;-9.19;87.22;97546.31;2097661;28;20039;-78
2023/02/09 00:21:33;;;;;;;23.98;10.63;;;;;;;-9.20;87.15;97538.66;2106511;28;20043;-78
2023/02/09 00:22:34;;;;;;;21.45;10.30;;;;;;;-9.29;87.55;97523.09;2106433;28;20038;-77
2023/02/09 00:23:37;;;;;;;19.38;9.48;;;;;;;-9.15;87.72;97543.16;2097604;28;20452;-78
2023/02/09 00:24:38;;;;;;;20.20;9.52;;;;;;;-9.13;87.55;97548.28;2097980;28;20048;-78
2023/02/09 00:25:39;;;;;;;22.92;9.88;;;;;;;-9.20;87.37;97537.00;2106427;28;20047;-78
2023/02/09 00:26:40;;;;;;;26.42;9.98;;;;;;;-9.18;87.75;97542.13;2106543;28;20487;-78
2023/02/09 00:27:42;;;;;;;24.33;10.52;;;;;;;-9.22;86.83;97541.13;2106770;28;20039;-78
2023/02/09 00:28:43;;;;;;;20.70;9.52;;;;;;;-9.22;86.34;97543.63;2097709;28;20040;-78
2023/02/09 00:29:44;;;;;;;27.90;9.93;;;;;;;-9.21;86.13;97540.31;2089443;28;20040;-78
2023/02/09 00:30:45;;;;;;;23.90;9.70;;;;;;;-9.22;85.97;97538.59;2097530;28;20033;-77
2023/02/09 00:31:46;;;;;;;21.10;9.90;;;;;;;-9.27;86.04;97531.56;2097448;28;20044;-78
2023/02/09 00:32:47;;;;;;;18.30;9.85;;;;;;;-9.34;85.78;97523.69;2097462;28;20052;-78
2023/02/09 00:33:48;;;;;;;20.63;9.57;;;;;;;-9.30;86.13;97537.31;2106458;28;20051;-77
2023/02/09 00:34:49;;;;;;;20.48;9.80;;;;;;;-9.33;85.49;97543.06;2097634;28;20558;-78
2023/02/09 00:35:50;;;;;;;22.80;9.55;;;;;;;-9.35;85.03;97536.19;2089171;28;20040;-78
2023/02/09 00:36:52;;;;;;;18.65;9.00;;;;;;;-9.34;85.87;97535.41;2097676;28;20059;-77
2023/02/09 00:37:53;;;;;;;19.60;8.85;;;;;;;-9.33;85.47;97534.63;2106456;28;20467;-77
2023/02/09 00:38:54;;;;;;;21.88;9.93;;;;;;;-9.33;85.31;97543.06;2105451;28;20048;-77
2023/02/09 00:39:55;;;;;;;18.75;9.00;;;;;;;-9.34;85.21;97535.41;2105840;28;20067;-77
2023/02/09 00:40:56;;;;;;;22.40;9.90;;;;;;;-9.37;84.95;97537.75;2097473;28;20138;-77
2023/02/09 00:42:06;;;;;;;25.35;9.05;;;;;;;-9.42;85.00;97540.03;2097186;28;20047;-77
2023/02/09 00:43:07;;;;;;;19.35;9.18;;;;;;;-9.46;85.09;97535.63;2106536;28;20043;-77
2023/02/09 00:44:09;;;;;;;20.73;9.90;;;;;;;-9.46;85.12;97534.72;2106466;28;20043;-77
2023/02/09 00:45:10;;;;;;;21.77;9.70;;;;;;;-9.43;86.30;97537.44;2096836;28;20538;-77
2023/02/09 00:46:11;;;;;;;21.83;9.30;;;;;;;-9.44;86.83;97543.22;2088669;28;20049;-77
2023/02/09 00:47:13;;;;;;;21.17;10.45;;;;;;;-9.23;88.06;97531.81;2097450;28;20043;-77
2023/02/09 00:48:14;;;;;;;21.10;9.70;;;;;;;-9.19;88.26;97538.75;2097294;28;20056;-77
2023/02/09 00:49:15;;;;;;;23.27;9.65;;;;;;;-9.26;87.85;97540.84;2089364;28;20408;-77
2023/02/09 00:50:17;;;;;;;24.50;9.60;;;;;;;-9.26;87.70;97544.22;2088681;28;20053;-77
2023/02/09 00:51:18;;;;;;;22.48;9.57;;;;;;;-9.25;87.51;97540.06;2097338;28;20041;-77
2023/02/09 00:52:19;;;;;;;19.83;9.20;;;;;;;-9.27;87.10;97541.63;2106369;28;20032;-77
2023/02/09 00:53:20;;;;;;;22.98;10.77;;;;;;;-9.28;86.98;97544.94;2097852;28;20043;-77
2023/02/09 00:54:21;;;;;;;23.05;10.90;;;;;;;-9.31;86.52;97548.16;2097353;28;20043;-77
2023/02/09 00:55:22;;;;;;;19.63;9.05;;;;;;;-9.35;86.32;97539.56;2097339;28;20031;-77
2023/02/09 00:56:24;;;;;;;19.35;9.02;;;;;;;-9.38;86.02;97546.97;2089434;28;20044;-77
2023/02/09 00:57:25;;;;;;;20.45;9.13;;;;;;;-9.43;86.06;97537.44;2097386;28;20468;-77
2023/02/09 00:58:26;;;;;;;21.90;9.95;;;;;;;-9.40;85.95;97545.16;2080870;28;20049;-76
2023/02/09 00:59:27;;;;;;;22.00;9.25;;;;;;;-9.44;85.93;97553.28;2072901;28;20041;-77
2023/02/09 01:00:28;;;;;;;26.90;9.93;;;;;;;-9.50;85.83;97535.38;2097619;28;20041;-76
2023/02/09 01:01:31;;;;;;;24.85;10.00;;;;;;;-9.50;85.80;97545.41;2106600;28;20047;-77
2023/02/09 01:02:32;;;;;;;21.33;9.88;;;;;;;-9.52;85.37;97544.47;2097555;28;20032;-76
2023/02/09 01:03:33;;;;;;;22.48;9.40;;;;;;;-9.56;85.41;97536.75;2097402;28;20036;-77
2023/02/09 01:04:36;;;;;;;21.33;8.77;;;;;;;-9.57;85.24;97545.09;2097541;28;20373;-76
2023/02/09 01:05:39;;;;;;;21.70;10.00;;;;;;;-9.69;84.96;97519.25;2088476;28;20052;-76
2023/02/09 01:06:40;;;;;;;19.73;8.77;;;;;;;-9.58;85.30;97538.31;2089853;28;20032;-78
2023/02/09 01:07:41;;;;;;;20.15;9.45;;;;;;;-9.59;85.48;97538.25;2097560;28;20048;-78
2023/02/09 01:08:42;;;;;;;20.48;9.75;;;;;;;-9.63;85.12;97529.66;2097334;28;20501;-78
2023/02/09 01:09:43;;;;;;;18.25;9.35;;;;;;;-9.62;86.05;97533.03;2106351;28;20035;-78
2023/02/09 01:10:44;;;;;;;21.13;9.20;;;;;;;-9.76;85.99;97497.91;2106443;28;20043;-78
2023/02/09 01:11:45;;;;;;;21.65;9.13;;;;;;;-9.68;86.14;97510.06;2097529;28;20052;-78
2023/02/09 01:12:46;;;;;;;20.55;9.68;;;;;;;-9.59;86.10;97524.00;2097449;28;20047;-78
2023/02/09 01:13:47;;;;;;;22.50;10.82;;;;;;;-9.59;85.93;97525.66;2106288;28;20028;-78
2023/02/09 01:14:48;;;;;;;20.05;10.13;;;;;;;-9.64;86.09;97515.34;2106366;28;20040;-78
2023/02/09 01:15:50;;;;;;;24.23;9.40;;;;;;;-9.57;85.89;97522.47;2106325;28;20040;-78
2023/02/09 01:16:51;;;;;;;28.60;9.73;;;;;;;-9.56;86.62;97519.16;2097465;28;20052;-78
2023/02/09 01:17:52;;;;;;;21.70;10.13;;;;;;;-9.50;85.71;97523.66;2089121;28;20044;-78
2023/02/09 01:18:53;;;;;;;22.50;9.43;;;;;;;-9.48;86.11;97518.72;2097122;28;20044;-78
2023/02/09 01:19:55;;;;;;;20.42;9.55;;;;;;;-9.49;85.90;97522.00;2097203;28;20075;-78
2023/02/09 01:20:57;;;;;;;20.73;10.20;;;;;;;-9.64;85.43;97500.25;2097403;28;20115;-78
2023/02/09 01:21:58;;;;;;;20.67;9.52;;;;;;;-9.53;85.58;97520.09;2106385;28;20036;-78
2023/02/09 01:22:59;;;;;;;21.92;9.40;;;;;;;-9.55;86.33;97528.41;2097363;28;20040;-78
2023/02/09 01:24:00;;;;;;;19.85;9.18;;;;;;;-9.61;85.83;97522.19;2089184;28;20164;-78
2023/02/09 01:25:01;;;;;;;24.73;9.10;;;;;;;-9.68;85.85;97508.41;2097377;28;20032;-78
2023/02/09 01:26:03;;;;;;;24.35;9.60;;;;;;;-9.61;85.58;97525.56;2106283;28;20047;-78
2023/02/09 01:27:04;;;;;;;21.02;9.30;;;;;;;-9.62;85.41;97521.34;2097338;28;20503;-78
2023/02/09 01:28:05;;;;;;;21.48;9.75;;;;;;;-9.64;85.63;97522.88;2089105;28;20045;-78
2023/02/09 01:29:07;;;;;;;23.67;10.20;;;;;;;-9.64;85.50;97522.03;2097378;28;20041;-77
2023/02/09 01:30:08;;;;;;;21.80;9.73;;;;;;;-9.65;85.67;97518.66;2107144;28;20091;-76
2023/02/09 01:31:22;;;;;;;22.10;9.95;;;;;;;-9.66;85.32;97521.94;2106441;28;20036;-78
2023/02/09 01:32:24;;;;;;;22.15;10.27;;;;;;;-9.69;85.61;97521.78;2106240;28;20040;-78
2023/02/09 01:33:25;;;;;;;24.70;10.52;;;;;;;-9.68;86.82;97517.59;2105638;28;20047;-78
2023/02/09 01:34:26;;;;;;;20.90;9.70;;;;;;;-9.72;86.45;97526.63;2096338;28;20047;-78
2023/02/09 01:35:27;;;;;;;21.15;9.65;;;;;;;-9.71;86.76;97520.81;2097140;28;20040;-78
2023/02/09 01:36:29;;;;;;;23.27;10.40;;;;;;;-9.72;86.24;97515.72;2106434;28;20047;-78
2023/02/09 01:37:32;;;;;;;26.98;12.20;;;;;;;-9.71;86.57;97530.88;2097252;28;20154;-78
2023/02/09 01:38:33;;;;;;;25.25;10.52;;;;;;;-9.72;86.45;97521.59;2088846;28;20469;-78
2023/02/09 01:39:35;;;;;;;22.00;9.73;;;;;;;-9.72;86.02;97521.59;2080968;28;20172;-78
2023/02/09 01:40:36;;;;;;;24.65;10.50;;;;;;;-9.73;86.17;97519.84;2097169;28;20083;-78
2023/02/09 01:41:38;;;;;;;22.63;9.77;;;;;;;-9.72;86.41;97521.59;2106262;28;20024;-78
2023/02/09 01:42:39;;;;;;;20.30;9.68;;;;;;;-9.73;87.27;97517.34;2106261;28;20028;-78
2023/02/09 01:43:51;;;;;;;26.17;11.07;;;;;;;-9.68;88.44;97512.56;2106950;28;20036;-78
2023/02/09 01:45:14;;;;;;;23.90;9.75;;;;;;;-9.80;88.09;97500.19;2098784;28;20500;-78
2023/02/09 01:46:15;;;;;;;25.30;10.73;;;;;;;-9.86;87.24;97495.72;2093294;28;20047;-78
2023/02/09 01:47:17;;;;;;;22.38;9.68;;;;;;;-9.78;86.99;97513.72;2098811;28;20047;-78
2023/02/09 01:48:20;;;;;;;22.30;11.50;;;;;;;-9.91;87.11;97492.06;2098554;28;20040;-78
2023/02/09 01:49:25;;;;;;;24.88;10.82;;;;;;;-9.81;86.76;97508.50;2065747;28;20058;-78
2023/02/09 01:50:26;;;;;;;23.00;10.20;;;;;;;-9.82;86.29;97506.78;2074816;28;20038;-78
2023/02/09 01:51:28;;;;;;;22.75;10.00;;;;;;;-9.83;86.45;97510.09;2074421;28;20040;-78
2023/02/09 01:52:29;;;;;;;20.15;9.48;;;;;;;-9.86;86.55;97509.91;2090490;28;20044;-78
2023/02/09 01:53:30;;;;;;;26.85;10.65;;;;;;;-9.88;86.88;97506.47;2107550;28;20039;-78
2023/02/09 01:54:35;;;;;;;21.13;9.88;;;;;;;-9.89;86.42;97509.72;2090376;28;20044;-78
2023/02/09 01:55:39;;;;;;;22.00;10.13;;;;;;;-10.03;86.13;97484.69;2091265;28;20040;-78
2023/02/09 01:56:42;;;;;;;26.52;11.32;;;;;;;-9.88;86.37;97512.34;2098562;28;20037;-78
2023/02/09 01:58:19;;;;;;;23.95;10.85;;;;;;;-9.84;85.64;97513.38;2089811;28;20051;-78
2023/02/09 01:59:21;;;;;;;24.70;11.27;;;;;;;-9.84;86.16;97508.34;2092153;28;20028;-78
2023/02/09 02:00:22;;;;;;;23.48;10.07;;;;;;;-9.81;86.55;97509.41;2081419;28;20041;-78
2023/02/09 02:01:24;;;;;;;22.92;10.38;;;;;;;-9.84;86.02;97505.81;2074275;28;20093;-78
2023/02/09 02:02:26;;;;;;;23.33;10.27;;;;;;;-9.82;86.70;97509.31;2073998;28;20049;-78
2023/02/09 02:03:27;;;;;;;22.85;10.55;;;;;;;-9.89;85.97;97497.16;2090331;28;20091;-78
2023/02/09 02:04:29;;;;;;;19.73;9.93;;;;;;;-9.87;86.44;97510.69;2081971;28;20401;-78
2023/02/09 02:05:32;;;;;;;20.50;9.80;;;;;;;-9.90;85.86;97508.00;2082402;28;20052;-78
2023/02/09 02:06:33;;;;;;;23.75;10.43;;;;;;;-9.89;86.17;97508.09;2090653;28;20037;-78
2023/02/09 02:08:02;;;;;;;24.48;11.30;;;;;;;-9.89;86.32;97502.19;2090710;28;20052;-78
2023/02/09 02:09:08;;;;;;;;;;;;;;;-9.88;87.06;97502.28;2102967;28;20364;-78
2023/02/09 02:10:09;;;;;;;21.30;9.60;;;;;;;-9.92;86.73;97507.06;2098530;28;19913;-78
2023/02/09 02:11:10;;;;;;;23.23;10.55;;;;;;;-10.00;87.44;97494.91;2090115;28;20041;-78
2023/02/09 02:12:11;;;;;;;21.70;10.60;;;;;;;-9.98;86.53;97502.53;2090380;28;20413;-76
2023/02/09 02:13:12;;;;;;;26.17;10.55;;;;;;;-10.00;86.94;97497.44;2090244;28;20037;-77
2023/02/09 02:14:33;;;;;;;21.90;10.20;;;;;;;-10.05;86.54;97486.28;2098423;28;20036;-76
2023/02/09 02:15:45;;;;;;;21.85;10.77;;;;;;;-10.06;86.33;97489.56;2107726;28;20031;-76
2023/02/09 02:17:10;;;;;;;25.08;10.40;;;;;;;-9.99;87.80;97486.59;2098738;28;20053;-76
2023/02/09 02:18:21;;;;;;;20.77;10.07;;;;;;;-9.88;89.03;97481.31;2101048;28;20491;-76
2023/02/09 02:19:31;;;;;;;19.58;8.63;;;;;;;-9.89;88.09;97484.59;2098314;28;20404;-76
2023/02/09 02:20:39;;;;;;;23.50;10.10;;;;;;;-9.85;88.06;97492.41;2084024;28;20048;-76
2023/02/09 02:21:55;;;;;;;24.25;9.60;;;;;;;-9.78;88.43;97488.59;2082941;28;20041;-77
2023/02/09 02:23:01;;;;;;;24.15;10.88;;;;;;;-9.61;89.64;97484.47;2077718;28;20041;-77
2023/02/09 02:24:21;;;;;;;25.50;10.88;;;;;;;-9.58;89.76;97484.63;2085145;28;20044;-76
2023/02/09 02:25:34;;;;;;;24.30;10.55;;;;;;;-9.63;89.62;97481.88;2092813;28;20036;-76
2023/02/09 02:26:50;;;;;;;24.42;10.13;;;;;;;-9.58;89.94;97482.97;2091745;28;20353;-77
2023/02/09 02:28:06;;;;;;;23.50;9.75;;;;;;;-9.63;89.97;97481.00;2083983;28;20500;-76
2023/02/09 02:29:21;;;;;;;23.05;9.93;;;;;;;-9.61;89.51;97484.47;2094711;28;20519;-77
2023/02/09 02:30:37;;;;;;;23.67;9.68;;;;;;;-9.65;89.11;97473.41;2090088;28;20032;-76
2023/02/09 02:31:56;;;;;;;22.75;9.95;;;;;;;-9.71;88.35;97474.69;2083750;28;20528;-76
2023/02/09 02:33:16;;;;;;;24.08;9.52;;;;;;;-9.70;88.80;97472.28;2087327;28;20047;-76
2023/02/09 02:34:22;;;;;;;19.17;8.93;;;;;;;-9.65;89.51;97473.41;2092701;28;20041;-77
2023/02/09 02:35:36;;;;;;;20.77;9.32;;;;;;;-9.66;89.57;97473.28;2092570;28;20056;-77
2023/02/09 02:36:51;;;;;;;24.27;9.40;;;;;;;-9.69;89.04;97471.47;2091714;28;20040;-76
2023/02/09 02:37:54;;;;;;;20.45;9.88;;;;;;;-9.72;89.17;97471.31;2083613;28;20528;-76
2023/02/09 02:39:17;;;;;;;24.95;9.93;;;;;;;-9.71;88.49;97472.19;2090614;28;20044;-76
2023/02/09 02:40:40;;;;;;;21.00;9.57;;;;;;;-9.73;87.88;97467.06;2098436;28;20346;-76
2023/02/09 02:43:32;;;;;;;20.73;8.48;;;;;;;-9.89;87.76;97457.84;2100387;28;20421;-76
2023/02/09 02:44:33;;;;;;;22.30;9.32;;;;;;;-9.93;87.53;97463.47;2098246;28;20048;-76
2023/02/09 02:45:52;;;;;;;22.30;9.88;;;;;;;-9.98;87.42;97473.25;2091001;28;20037;-76
2023/02/09 02:46:56;;;;;;;29.10;9.77;;;;;;;-10.03;86.37;97473.78;2092463;28;20041;-76
2023/02/09 02:48:09;;;;;;;23.27;9.52;;;;;;;-10.07;86.82;97465.22;2081863;28;20033;-76
2023/02/09 02:49:15;;;;;;;22.50;9.57;;;;;;;-10.11;86.26;97463.28;2085330;28;20540;-76
2023/02/09 02:50:19;;;;;;;24.60;10.25;;;;;;;-10.11;86.56;97467.47;2090796;28;20047;-76
2023/02/09 02:51:30;;;;;;;20.95;10.10;;;;;;;-10.17;87.75;97464.63;2098131;28;20364;-77
2023/02/09 02:52:31;;;;;;;21.75;10.93;;;;;;;-10.19;87.66;97463.66;2099673;28;20408;-76
2023/02/09 02:53:34;;;;;;;24.33;9.35;;;;;;;-10.31;87.33;97457.19;2106587;28;20043;-76
2023/02/09 02:54:38;;;;;;;26.05;10.60;;;;;;;-10.21;86.95;97468.56;2098080;28;20032;-76
2023/02/09 02:55:40;;;;;;;26.17;11.90;;;;;;;-10.26;86.86;97465.81;2098827;28;20040;-76
2023/02/09 02:56:43;;;;;;;22.27;9.82;;;;;;;-10.25;86.36;97471.72;2090019;28;20428;-76
2023/02/09 02:57:45;;;;;;;23.15;9.63;;;;;;;-10.34;86.80;97458.66;2090121;28;20056;-76
2023/02/09 02:58:46;;;;;;;24.55;10.13;;;;;;;-10.29;86.32;97463.19;2089888;28;20044;-76
2023/02/09 02:59:51;;;;;;;23.38;10.32;;;;;;;-10.28;85.92;97472.44;2073506;28;20038;-76
2023/02/09 03:00:53;;;;;;;22.67;9.93;;;;;;;-10.26;85.91;97472.50;2082419;28;20037;-76
2023/02/09 03:01:57;;;;;;;23.63;10.77;;;;;;;-10.26;86.22;97468.34;2098545;28;20036;-76
2023/02/09 03:03:01;;;;;;;23.92;10.90;;;;;;;-10.32;87.23;97465.50;2097962;28;20134;-76
2023/02/09 03:04:02;;;;;;;23.75;11.65;;;;;;;-10.27;87.58;97473.31;2090425;28;20408;-76
2023/02/09 03:05:03;;;;;;;27.60;11.55;;;;;;;-10.24;87.93;97474.28;2090003;28;20512;-76
2023/02/09 03:06:04;;;;;;;25.50;10.80;;;;;;;-10.18;89.10;97480.44;2073328;28;20049;-76
2023/02/09 03:07:06;;;;;;;29.95;11.02;;;;;;;-10.18;89.46;97477.94;2081553;28;20041;-76
2023/02/09 03:08:07;;;;;;;24.75;11.45;;;;;;;-10.16;88.03;97483.91;2107117;28;20467;-76
2023/02/09 03:09:08;;;;;;;21.83;10.20;;;;;;;-10.13;88.95;97474.03;2106977;28;20043;-76
2023/02/09 03:10:31;;;;;;;26.15;11.07;;;;;;;-10.11;88.45;97483.41;2097196;28;20535;-76
2023/02/09 03:11:38;;;;;;;26.52;10.70;;;;;;;-10.16;87.24;97474.72;2101237;28;20043;-76
2023/02/09 03:12:56;;;;;;;27.58;12.45;;;;;;;-10.18;87.30;97475.41;2089847;28;20033;-76
2023/02/09 03:14:16;;;;;;;26.63;11.23;;;;;;;-10.22;87.36;97476.91;2094784;28;20045;-76
2023/02/09 03:15:47;;;;;;;25.48;10.50;;;;;;;-10.27;86.98;97470.78;2107037;28;20035;-76
2023/02/09 03:17:14;;;;;;;25.27;11.05;;;;;;;-10.31;86.73;97474.78;2089634;28;20400;-76
2023/02/09 03:18:25;;;;;;;26.13;11.40;;;;;;;-10.33;86.64;97480.50;2101693;28;20415;-76
2023/02/09 03:19:44;;;;;;;25.83;10.70;;;;;;;-10.32;86.02;97485.59;2089053;28;20365;-76
2023/02/09 03:20:50;;;;;;;30.95;12.15;;;;;;;-10.35;86.72;97477.03;2095752;28;20503;-76
2023/02/09 03:22:11;;;;;;;25.75;11.15;;;;;;;-10.31;86.41;97477.28;2096904;28;20048;-76
2023/02/09 03:23:19;;;;;;;24.33;10.48;;;;;;;-10.31;86.07;97469.75;2092672;28;20036;-76
2023/02/09 03:24:41;;;;;;;27.13;10.65;;;;;;;-10.29;86.99;97474.84;2089638;28;20033;-76
2023/02/09 03:25:44;;;;;;;26.42;11.35;;;;;;;-10.33;86.01;97465.44;2096530;28;20036;-76
2023/02/09 03:27:00;;;;;;;26.75;11.27;;;;;;;-10.30;86.78;97479.00;2089731;28;20045;-76
2023/02/09 03:28:15;;;;;;;25.45;10.75;;;;;;;-10.44;86.08;97452.25;2077195;28;20049;-76
2023/02/09 03:29:16;;;;;;;26.67;10.82;;;;;;;-10.34;86.54;97473.72;2085924;28;20041;-76
2023/02/09 03:30:17;;;;;;;26.40;11.57;;;;;;;-10.33;85.77;97483.00;2082222;28;20044;-76
2023/02/09 03:31:18;;;;;;;26.85;12.32;;;;;;;-10.33;86.42;97488.03;2081452;28;20041;-76
2023/02/09 03:32:19;;;;;;;26.45;11.75;;;;;;;-10.38;86.79;97477.72;2089687;28;20048;-76
2023/02/09 03:33:23;;;;;;;30.27;12.00;;;;;;;-10.40;86.71;97485.94;2081254;28;20052;-76
2023/02/09 03:34:24;;;;;;;28.95;12.05;;;;;;;-10.44;87.29;97478.22;2081883;28;20064;-76
2023/02/09 03:35:30;;;;;;;24.40;11.43;;;;;;;-10.49;86.80;97474.59;2089444;28;20032;-76
2023/02/09 03:36:33;;;;;;;27.88;12.35;;;;;;;-10.45;88.41;97475.63;2090146;28;20392;-76
2023/02/09 03:37:34;;;;;;;22.33;11.68;;;;;;;-10.41;87.84;97476.69;2090013;28;20056;-76
2023/02/09 03:38:35;;;;;;;28.00;12.75;;;;;;;-10.39;88.50;97477.66;2097641;28;20488;-77
2023/02/09 03:39:36;;;;;;;28.48;12.00;;;;;;;-10.49;88.87;97446.09;2107708;28;20051;-74
2023/02/09 03:40:37;;;;;;;31.45;12.95;;;;;;;-10.36;87.79;97485.34;2097885;28;20416;-76
2023/02/09 03:41:38;;;;;;;31.10;11.57;;;;;;;-10.35;87.30;97487.06;2097976;28;20032;-76
2023/02/09 03:42:39;;;;;;;25.75;11.32;;;;;;;-10.37;87.34;97484.50;2106725;28;20039;-76
2023/02/09 03:45:00;;;;;;;26.27;11.35;;;;;;;-10.40;86.40;97469.22;2106705;28;20055;-76
2023/02/09 03:46:01;;;;;;;27.48;11.32;;;;;;;-10.38;86.62;97482.75;2105995;28;20055;-76
2023/02/09 03:47:04;;;;;;;25.50;11.55;;;;;;;-10.42;86.62;97473.31;2106895;28;20036;-76
2023/02/09 03:48:05;;;;;;;24.90;12.00;;;;;;;-10.42;86.68;97478.34;2106754;28;20135;-76
2023/02/09 03:49:06;;;;;;;27.83;11.52;;;;;;;-10.45;85.78;97481.53;2106710;28;20040;-76
2023/02/09 03:50:08;;;;;;;25.38;11.52;;;;;;;-10.54;86.01;97465.06;2107091;28;20036;-76
2023/02/09 03:51:11;;;;;;;33.38;12.65;;;;;;;-10.46;86.76;97481.44;2097115;28;20040;-76
2023/02/09 03:52:13;;;;;;;26.40;11.68;;;;;;;-10.53;86.56;97475.22;2097942;28;20036;-76
2023/02/09 03:53:14;;;;;;;26.20;12.25;;;;;;;-10.52;87.59;97476.94;2106614;28;20046;-76
2023/02/09 03:54:15;;;;;;;31.38;12.90;;;;;;;-10.51;87.13;97481.16;2106832;28;20039;-76
2023/02/09 03:55:16;;;;;;;25.42;12.35;;;;;;;-10.51;87.36;97477.78;2106643;28;20040;-76
2023/02/09 03:56:17;;;;;;;25.48;12.07;;;;;;;-10.58;86.97;97464.03;2106690;28;20036;-76
2023/02/09 03:57:18;;;;;;;27.02;11.27;;;;;;;-10.50;87.81;97472.00;2106650;28;20040;-76
2023/02/09 03:58:20;;;;;;;27.15;12.30;;;;;;;-10.47;88.62;97485.59;2106631;28;20035;-76
2023/02/09 03:59:24;;;;;;;33.38;12.43;;;;;;;-10.44;89.24;97480.75;2106835;28;20046;-76
2023/02/09 04:00:25;;;;;;;29.42;12.00;;;;;;;-10.48;89.73;97481.38;2106569;28;20055;-76
2023/02/09 04:01:26;;;;;;;29.13;12.13;;;;;;;-10.44;89.97;97478.22;2106526;28;20457;-76
2023/02/09 04:02:28;;;;;;;26.48;11.75;;;;;;;-10.56;89.42;97459.06;2106801;28;20054;-76
2023/02/09 04:03:30;;;;;;;27.85;11.98;;;;;;;-10.43;89.72;97482.47;2106636;28;20044;-76
2023/02/09 04:04:31;;;;;;;27.33;12.43;;;;;;;-10.43;89.05;97477.44;2106613;28;20032;-76
2023/02/09 04:05:32;;;;;;;27.60;12.20;;;;;;;-10.40;89.36;97478.41;2106525;28;20124;-76
2023/02/09 04:06:34;;;;;;;30.67;13.35;;;;;;;-10.33;89.84;97475.47;2105541;28;20476;-75
2023/02/09 04:07:35;;;;;;;29.60;13.20;;;;;;;-10.40;90.13;97478.41;2106604;28;20027;-76
2023/02/09 04:08:36;;;;;;;29.98;12.93;;;;;;;-10.43;88.79;97477.44;2106724;28;20024;-76
2023/02/09 04:09:37;;;;;;;37.33;13.32;;;;;;;-10.45;89.19;97474.00;2106537;28;20040;-76
2023/02/09 04:10:38;;;;;;;25.42;12.25;;;;;;;-10.57;89.17;97445.66;2106600;28;20384;-76
2023/02/09 04:11:39;;;;;;;36.97;13.15;;;;;;;-10.39;89.08;97473.47;2106620;28;20032;-76
2023/02/09 04:12:40;;;;;;;27.70;11.73;;;;;;;-10.41;88.60;97471.66;2106597;28;20027;-76
2023/02/09 04:13:41;;;;;;;31.77;13.50;;;;;;;-10.39;89.25;97476.00;2106708;28;20059;-76
2023/02/09 04:14:42;;;;;;;30.73;12.55;;;;;;;-10.42;88.62;97473.31;2106560;28;20491;-76
2023/02/09 04:15:44;;;;;;;31.90;13.25;;;;;;;-10.45;88.39;97476.50;2106567;28;20028;-77
2023/02/09 04:16:45;;;;;;;27.55;12.43;;;;;;;-10.28;89.62;97469.06;2106650;28;20036;-76
2023/02/09 04:17:46;;;;;;;28.25;12.35;;;;;;;-10.28;89.30;97472.44;2106481;28;20137;-77
2023/02/09 04:18:47;;;;;;;30.80;12.63;;;;;;;-10.43;89.35;97467.41;2106254;28;20494;-76
2023/02/09 04:19:48;;;;;;;28.08;12.60;;;;;;;-10.40;88.26;97468.34;2106824;28;20038;-76
2023/02/09 04:20:49;;;;;;;28.08;12.68;;;;;;;-10.44;88.20;97463.16;2106494;28;20047;-76
2023/02/09 04:21:50;;;;;;;27.65;11.77;;;;;;;-10.54;88.20;97455.00;2106438;28;20044;-76
2023/02/09 04:23:00;;;;;;;30.85;11.98;;;;;;;-10.59;87.69;97451.38;2106589;28;20490;-76
2023/02/09 04:24:01;;;;;;;27.83;11.98;;;;;;;-10.54;87.78;97470.94;2106488;28;20032;-77
2023/02/09 04:25:02;;;;;;;33.15;12.75;;;;;;;-10.55;87.42;97474.25;2106442;28;20110;-76
2023/02/09 04:26:03;;;;;;;28.33;12.40;;;;;;;-10.60;87.93;97465.56;2106567;28;20039;-76
2023/02/09 04:27:05;;;;;;;26.35;12.48;;;;;;;-10.60;87.09;97468.09;2106479;28;20040;-76
2023/02/09 04:28:06;;;;;;;30.63;12.00;;;;;;;-10.56;86.90;97471.63;2106526;28;20047;-76
2023/02/09 04:29:07;;;;;;;30.60;11.80;;;;;;;-10.54;87.50;97478.47;2097498;28;20044;-76
2023/02/09 04:30:08;;;;;;;30.75;12.95;;;;;;;-10.56;87.16;97482.53;2097481;28;20040;-76
2023/02/09 04:31:09;;;;;;;26.52;11.88;;;;;;;-10.56;86.87;97481.66;2106339;28;20043;-76
2023/02/09 04:32:11;;;;;;;25.38;12.05;;;;;;;-10.58;86.59;97479.09;2106560;28;20119;-77
2023/02/09 04:33:12;;;;;;;33.92;12.45;;;;;;;-10.60;87.05;97478.13;2106422;28;20495;-76
2023/02/09 04:34:13;;;;;;;30.40;12.68;;;;;;;-10.62;87.34;97486.34;2106386;28;20032;-76
2023/02/09 04:35:14;;;;;;;33.38;13.43;;;;;;;-10.63;87.44;97479.59;2106537;28;20051;-76
2023/02/09 04:36:15;;;;;;;24.90;11.35;;;;;;;-10.63;87.31;97488.00;2106433;28;20040;-76
2023/02/09 04:37:16;;;;;;;29.50;11.88;;;;;;;-10.66;87.20;97487.81;2106414;28;20040;-76
2023/02/09 04:38:19;;;;;;;25.83;11.13;;;;;;;-10.62;87.01;97486.34;2106477;28;20059;-76
2023/02/09 04:39:20;;;;;;;31.92;12.60;;;;;;;-10.61;86.71;97488.97;2106379;28;20039;-77
2023/02/09 04:40:21;;;;;;;31.75;12.82;;;;;;;-10.61;86.85;97491.47;2106393;28;20040;-76
2023/02/09 04:41:22;;;;;;;27.60;11.77;;;;;;;-10.60;87.47;97490.69;2106381;28;20066;-76
2023/02/09 04:42:23;;;;;;;28.17;12.60;;;;;;;-10.69;88.00;97472.56;2106417;28;20039;-76
2023/02/09 04:43:25;;;;;;;33.92;12.82;;;;;;;-10.64;87.29;97483.75;2106366;28;20054;-76
2023/02/09 04:44:26;;;;;;;25.30;11.88;;;;;;;-10.61;88.01;97483.94;2106377;28;20051;-77
2023/02/09 04:45:27;;;;;;;29.13;12.27;;;;;;;-10.48;89.24;97491.41;2105938;28;20063;-76
2023/02/09 04:46:28;;;;;;;30.30;13.07;;;;;;;-10.55;89.83;97486.81;2106332;28;20039;-76
2023/02/09 04:47:29;;;;;;;29.15;11.85;;;;;;;-10.55;89.20;97489.31;2106703;28;20468;-76
2023/02/09 04:48:30;;;;;;;37.25;13.07;;;;;;;-10.55;88.78;97496.84;2097340;28;20033;-76
2023/02/09 04:49:31;;;;;;;35.05;14.65;;;;;;;-10.60;89.72;97485.66;2097493;28;20048;-76
2023/02/09 04:50:32;;;;;;;30.50;12.82;;;;;;;-10.56;88.76;97499.25;2105814;28;20051;-76
2023/02/09 04:51:34;;;;;;;33.13;14.10;;;;;;;-10.58;88.65;97496.66;2106491;28;20040;-76
2023/02/09 04:52:35;;;;;;;27.27;12.40;;;;;;;-10.60;87.47;97498.22;2105641;28;20051;-76
2023/02/09 04:53:36;;;;;;;27.85;12.20;;;;;;;-10.61;87.97;97504.03;2106351;28;20424;-76
2023/02/09 04:54:37;;;;;;;27.80;11.95;;;;;;;-10.63;88.15;97500.56;2106274;28;20047;-76
2023/02/09 04:55:39;;;;;;;26.58;12.23;;;;;;;-10.64;86.72;97498.81;2106294;28;20036;-76
2023/02/09 04:56:40;;;;;;;36.25;12.90;;;;;;;-10.63;86.53;97500.56;2106504;28;20045;-75
2023/02/09 05:00:20;;;;;;;30.45;12.15;;;;;;;-10.58;88.45;97480.72;2106537;28;20372;-76
2023/02/09 05:01:22;;;;;;;34.55;13.55;;;;;;;-10.49;88.75;97491.31;2097311;28;20037;-76
2023/02/09 05:02:23;;;;;;;33.92;13.98;;;;;;;-10.40;89.65;97493.47;2097359;28;20040;-76